Time;durP1;ratioP1;P1;durP2;ratioP2;P2;SDS_P1;SDS_P2;PMS_P1;PMS_P2;Temp;Humidity;BMP_temperature;BMP_pressure;BME280_temperature;BME280_humidity;BME280_pressure;Samples;Min_cycle;Max_cycle;Signal;HPM_P1;HPM_P2
2022/04/19 00:00:56;;;;;;;28.50;23.90;;;;;;;4.37;48.65;97398.08;105997;1277;23136;-79
2022/04/19 00:03:24;;;;;;;30.10;25.00;;;;;;;4.38;48.37;97390.83;105925;1277;22556;-79
2022/04/19 00:05:52;;;;;;;32.20;25.70;;;;;;;4.38;48.32;97388.37;105786;1278;25524;-80
2022/04/19 00:08:20;;;;;;;28.20;23.50;;;;;;;4.38;48.32;97385.65;105771;1277;22876;-80
2022/04/19 00:10:48;;;;;;;26.70;22.90;;;;;;;4.38;48.83;97382.24;105704;1277;22578;-80
2022/04/19 00:13:16;;;;;;;26.80;21.60;;;;;;;4.38;48.58;97380.11;105872;1277;23082;-82
2022/04/19 00:15:45;;;;;;;26.80;23.20;;;;;;;4.39;48.62;97377.27;105935;1281;22793;-81
2022/04/19 00:18:15;;;;;;;28.10;24.00;;;;;;;4.39;48.73;97377.07;105906;1277;22622;-81
2022/04/19 00:20:42;;;;;;;25.70;22.90;;;;;;;4.37;48.80;97374.34;106286;1277;24418;-82
2022/04/19 00:23:15;;;;;;;27.70;24.70;;;;;;;4.35;48.66;97374.63;106047;1280;25426;-81
2022/04/19 00:25:45;;;;;;;24.50;21.70;;;;;;;4.33;48.58;97371.36;105968;1277;22656;-81
2022/04/19 00:28:14;;;;;;;29.90;23.30;;;;;;;4.31;48.56;97373.40;106034;1277;22578;-80
2022/04/19 00:30:43;;;;;;;24.50;21.00;;;;;;;4.28;48.50;97366.73;105959;1277;22551;-80
2022/04/19 00:33:11;;;;;;;24.10;20.50;;;;;;;4.24;48.88;97367.45;106027;1277;23922;-80
2022/04/19 00:35:39;;;;;;;23.40;20.10;;;;;;;4.20;48.70;97363.78;105998;1277;25323;-80
2022/04/19 00:38:07;;;;;;;26.70;23.40;;;;;;;4.16;48.80;97365.75;105993;1277;23074;-79
2022/04/19 00:40:35;;;;;;;38.40;30.10;;;;;;;4.09;49.00;97364.91;105760;1277;25204;-78
2022/04/19 00:43:05;;;;;;;31.20;25.70;;;;;;;4.05;49.03;97362.05;105972;1280;22626;-79
2022/04/19 00:45:34;;;;;;;32.30;27.60;;;;;;;4.03;49.07;97365.40;106021;1277;22671;-78
2022/04/19 00:48:03;;;;;;;36.40;31.10;;;;;;;4.01;49.35;97360.98;105989;1278;25397;-78
2022/04/19 00:50:33;;;;;;;34.80;31.00;;;;;;;3.94;49.34;97355.61;106002;1277;25586;-79
2022/04/19 00:53:05;;;;;;;31.70;28.20;;;;;;;3.91;49.65;97351.71;105865;1277;22560;-79
2022/04/19 00:55:33;;;;;;;32.40;28.70;;;;;;;3.89;49.62;97351.25;105969;1277;25409;-79
2022/04/19 00:58:01;;;;;;;31.70;28.30;;;;;;;3.86;49.75;97350.17;105997;1277;22688;-78
2022/04/19 01:00:30;;;;;;;34.00;28.50;;;;;;;3.83;49.90;97349.59;106024;1277;22573;-78
2022/04/19 01:03:12;;;;;;;32.90;27.90;;;;;;;3.79;49.92;97350.45;105736;1277;22665;-78
2022/04/19 01:05:44;;;;;;;35.40;31.70;;;;;;;3.73;50.32;97347.01;105836;1277;25206;-78
2022/04/19 01:08:16;;;;;;;35.10;31.30;;;;;;;3.71;50.30;97344.12;105984;1277;22694;-75
2022/04/19 01:10:45;;;;;;;33.00;29.50;;;;;;;3.71;50.30;97344.06;105691;1277;25519;-76
2022/04/19 01:13:17;;;;;;;34.80;31.00;;;;;;;3.72;50.46;97342.73;105371;1281;22561;-76
2022/04/19 01:15:54;;;;;;;42.00;34.80;;;;;;;3.72;50.46;97337.30;105674;1277;27801;-75
2022/04/19 01:18:24;;;;;;;37.80;33.40;;;;;;;3.72;50.44;97328.08;105692;1278;22567;-76
2022/04/19 01:20:59;;;;;;;35.10;31.30;;;;;;;3.73;50.50;97329.57;105727;1277;22566;-75
2022/04/19 01:23:29;;;;;;;29.20;24.90;;;;;;;3.73;50.78;97324.77;105784;1278;25378;-78
2022/04/19 01:25:58;;;;;;;25.10;22.50;;;;;;;3.74;50.81;97319.98;105738;1277;22548;-76
2022/04/19 01:28:27;;;;;;;24.50;21.90;;;;;;;3.75;50.82;97317.52;105819;1277;22543;-77
2022/04/19 01:30:55;;;;;;;23.80;19.70;;;;;;;3.78;50.66;97320.34;105783;1277;22769;-78
2022/04/19 01:33:25;;;;;;;29.30;24.50;;;;;;;3.79;50.83;97325.98;105800;1277;22651;-77
2022/04/19 01:35:53;;;;;;;29.40;24.90;;;;;;;3.77;50.86;97326.42;105658;1277;23933;-76
2022/04/19 01:38:22;;;;;;;28.70;25.60;;;;;;;3.74;51.13;97318.33;105886;1277;22547;-79
2022/04/19 01:40:51;;;;;;;32.90;28.00;;;;;;;3.73;51.04;97321.48;106023;1277;22566;-78
2022/04/19 01:43:33;;;;;;;32.60;28.00;;;;;;;3.72;51.34;97319.13;105939;1277;22533;-78
2022/04/19 01:46:02;;;;;;;30.40;27.10;;;;;;;3.68;51.11;97316.57;105722;1277;24269;-77
2022/04/19 01:48:30;;;;;;;32.40;28.90;;;;;;;3.65;51.03;97322.02;105784;1278;24250;-77
2022/04/19 01:50:59;;;;;;;33.00;28.90;;;;;;;3.62;51.25;97317.77;105959;1277;25416;-77
2022/04/19 01:53:27;;;;;;;32.80;28.70;;;;;;;3.61;51.40;97320.35;105966;1274;24204;-79
2022/04/19 01:55:55;;;;;;;32.90;29.00;;;;;;;3.60;51.56;97323.45;106294;1274;25413;-78
2022/04/19 01:58:59;;;;;;;35.70;31.80;;;;;;;3.54;51.48;97341.09;106346;1274;22726;-78
2022/04/19 02:01:44;;;;;;;42.90;38.10;;;;;;;3.43;52.50;97336.13;106238;1274;25493;-78
2022/04/19 02:04:12;;;;;;;40.40;36.20;;;;;;;3.35;52.39;97332.73;106230;1274;25344;-78
2022/04/19 02:06:41;;;;;;;42.40;38.10;;;;;;;3.31;52.32;97327.34;106209;1274;22543;-77
2022/04/19 02:09:11;;;;;;;43.10;37.30;;;;;;;3.29;52.24;97324.40;105988;1274;25426;-78
2022/04/19 02:11:39;;;;;;;44.30;38.80;;;;;;;3.28;52.24;97335.11;106221;1274;22864;-77
2022/04/19 02:14:36;;;;;;;43.20;38.60;;;;;;;3.27;53.30;97321.01;105823;1274;22553;-78
2022/04/19 02:17:05;;;;;;;44.00;38.60;;;;;;;3.28;52.60;97320.52;106119;1274;24090;-77
2022/04/19 02:19:33;;;;;;;41.80;37.50;;;;;;;3.29;52.54;97316.37;106117;1274;24177;-77
2022/04/19 02:22:05;;;;;;;42.90;38.50;;;;;;;3.32;52.56;97315.52;105989;1274;22580;-77
2022/04/19 02:24:34;;;;;;;45.00;40.50;;;;;;;3.35;52.60;97312.97;105875;1274;22582;-76
2022/04/19 02:27:02;;;;;;;44.90;40.20;;;;;;;3.39;52.58;97313.50;106268;1274;24076;-77
2022/04/19 02:29:32;;;;;;;46.80;41.80;;;;;;;3.42;52.60;97311.09;105970;1274;22548;-79
2022/04/19 02:32:00;;;;;;;45.60;40.90;;;;;;;3.44;52.45;97308.53;106283;1274;22576;-77
2022/04/19 02:34:29;;;;;;;46.00;41.30;;;;;;;3.42;52.40;97305.45;106292;1274;22534;-78
2022/04/19 02:36:57;;;;;;;47.00;42.30;;;;;;;3.41;52.33;97303.21;106257;1274;22541;-78
2022/04/19 02:39:28;;;;;;;49.10;44.00;;;;;;;3.42;52.60;97304.33;106312;1274;22615;-78
2022/04/19 02:41:56;;;;;;;46.00;41.10;;;;;;;3.43;52.62;97312.42;106276;1274;25446;-79
2022/04/19 02:44:25;;;;;;;48.60;43.60;;;;;;;3.43;52.56;97310.98;106271;1272;22593;-78
2022/04/19 02:47:02;;;;;;;48.10;43.30;;;;;;;3.44;52.66;97313.39;106339;1274;22630;-77
2022/04/19 02:49:32;;;;;;;50.80;45.70;;;;;;;3.46;52.86;97317.38;106276;1274;22619;-77
2022/04/19 02:52:00;;;;;;;50.40;45.30;;;;;;;3.47;52.81;97315.79;106223;1274;22792;-77
2022/04/19 02:54:29;;;;;;;50.90;45.50;;;;;;;3.43;53.03;97320.95;106322;1274;22655;-78
2022/04/19 02:56:58;;;;;;;46.30;38.50;;;;;;;3.33;53.33;97322.81;106092;1274;24381;-78
2022/04/19 02:59:25;;;;;;;40.10;36.00;;;;;;;3.24;54.03;97326.80;106225;1274;22844;-78
2022/04/19 03:01:53;;;;;;;34.50;30.90;;;;;;;3.16;54.06;97319.60;105870;1274;22554;-78
2022/04/19 03:04:21;;;;;;;35.10;31.50;;;;;;;3.15;53.55;97315.23;105853;1274;22611;-78
2022/04/19 03:06:49;;;;;;;33.10;29.10;;;;;;;3.17;53.32;97320.34;106326;1274;24744;-78
2022/04/19 03:09:17;;;;;;;32.70;29.30;;;;;;;3.18;53.54;97323.08;105962;1274;22567;-78
2022/04/19 03:11:45;;;;;;;32.40;29.00;;;;;;;3.18;53.80;97320.58;106019;1274;25417;-80
2022/04/19 03:14:13;;;;;;;33.70;30.20;;;;;;;3.18;53.70;97316.73;106040;1274;22616;-78
2022/04/19 03:16:41;;;;;;;23.20;19.90;;;;;;;3.21;53.57;97316.73;106030;1274;22559;-79
2022/04/19 03:19:13;;;;;;;13.50;12.10;;;;;;;3.26;54.52;97315.19;105973;1274;22563;-79
2022/04/19 03:21:41;;;;;;;14.50;12.50;;;;;;;3.34;53.82;97307.96;106014;1274;22746;-79
2022/04/19 03:29:43;;;;;;;14.60;12.80;;;;;;;3.49;54.06;97301.02;105981;1274;22546;-77
2022/04/19 03:32:12;;;;;;;13.70;12.30;;;;;;;3.53;54.12;97297.46;106011;1274;22558;-79
2022/04/19 03:34:41;;;;;;;13.20;11.90;;;;;;;3.58;54.09;97294.84;106201;1274;22691;-78
2022/04/19 03:37:09;;;;;;;16.20;12.70;;;;;;;3.61;54.04;97294.25;106015;1274;22572;-78
2022/04/19 03:39:38;;;;;;;20.70;15.70;;;;;;;3.63;54.06;97286.89;106227;1274;22725;-79
2022/04/19 03:42:08;;;;;;;19.00;17.00;;;;;;;3.66;54.05;97280.45;106140;1274;22549;-80
2022/04/19 03:44:36;;;;;;;22.60;20.30;;;;;;;3.67;54.14;97279.16;106168;1274;24482;-79
2022/04/19 03:47:07;;;;;;;28.90;22.00;;;;;;;3.65;54.00;97275.98;106135;1274;25357;-78
2022/04/19 03:49:36;;;;;;;26.90;24.10;;;;;;;3.62;54.22;97274.42;106235;1274;25382;-79
2022/04/19 03:52:07;;;;;;;24.90;22.30;;;;;;;3.60;54.12;97278.75;106216;1274;22548;-79
2022/04/19 03:54:36;;;;;;;25.00;22.50;;;;;;;3.59;54.41;97277.38;106117;1274;22592;-78
2022/04/19 03:57:07;;;;;;;30.40;27.30;;;;;;;3.58;54.23;97278.27;106212;1274;22788;-78
2022/04/19 03:59:38;;;;;;;32.60;29.30;;;;;;;3.56;54.22;97276.66;106192;1274;24553;-78
2022/04/19 04:02:06;;;;;;;33.70;30.20;;;;;;;3.54;54.29;97277.64;106084;1273;26294;-78
2022/04/19 04:04:36;;;;;;;34.00;30.60;;;;;;;3.52;54.39;97274.27;105983;1274;22548;-77
2022/04/19 04:07:05;;;;;;;33.10;30.00;;;;;;;3.52;54.28;97279.77;105901;1274;26497;-77
2022/04/19 04:09:35;;;;;;;33.30;29.80;;;;;;;3.51;54.38;97277.06;105858;1274;25411;-77
2022/04/19 04:12:15;;;;;;;40.90;36.70;;;;;;;3.50;54.50;97279.09;106034;1274;22621;-78
2022/04/19 04:14:43;;;;;;;36.50;32.80;;;;;;;3.50;54.56;97277.06;105877;1274;22567;-78
2022/04/19 04:17:11;;;;;;;38.60;34.70;;;;;;;3.50;54.49;97277.80;105860;1274;22563;-78
2022/04/19 04:19:40;;;;;;;34.30;30.90;;;;;;;3.51;54.67;97276.95;105879;1274;22557;-78
2022/04/19 04:22:09;;;;;;;34.90;31.40;;;;;;;3.52;54.51;97278.11;105962;1274;22550;-78
2022/04/19 04:24:37;;;;;;;33.60;30.20;;;;;;;3.53;54.54;97283.07;105571;1277;22549;-78
2022/04/19 04:27:04;;;;;;;33.70;30.50;;;;;;;3.54;54.76;97279.49;105618;1277;23401;-77
2022/04/19 04:29:33;;;;;;;36.90;33.00;;;;;;;3.56;54.59;97288.50;106139;1274;22684;-78
2022/04/19 04:32:01;;;;;;;40.50;36.50;;;;;;;3.58;54.66;97292.23;105951;1274;25361;-78
2022/04/19 04:34:30;;;;;;;37.00;33.20;;;;;;;3.61;54.91;97293.02;105890;1274;22747;-79
2022/04/19 04:36:58;;;;;;;37.20;33.70;;;;;;;3.65;54.90;97291.16;106162;1274;22551;-77
2022/04/19 04:39:26;;;;;;;37.00;33.40;;;;;;;3.68;54.88;97286.48;105908;1274;22569;-79
2022/04/19 04:42:12;;;;;;;41.50;37.10;;;;;;;3.69;55.15;97288.97;105859;1274;22603;-77
2022/04/19 04:44:41;;;;;;;34.80;31.20;;;;;;;3.72;55.36;97293.28;105840;1274;22560;-78
2022/04/19 04:50:01;;;;;;;30.70;27.70;;;;;;;3.76;55.13;97308.88;105955;1274;22770;-78
2022/04/19 04:52:29;;;;;;;32.90;29.60;;;;;;;3.75;55.36;97316.62;105846;1274;22751;-78
2022/04/19 04:54:57;;;;;;;31.80;28.70;;;;;;;3.74;55.35;97315.41;105984;1274;24083;-78
2022/04/19 04:57:28;;;;;;;33.00;29.60;;;;;;;3.72;55.18;97317.36;106065;1274;25255;-78
2022/04/19 04:59:57;;;;;;;30.10;27.00;;;;;;;3.72;55.52;97314.55;105875;1274;22571;-79
2022/04/19 05:02:26;;;;;;;31.80;28.60;;;;;;;3.73;55.68;97311.67;105816;1274;22550;-77
2022/04/19 05:04:54;;;;;;;39.80;35.70;;;;;;;3.75;55.47;97309.90;105858;1274;22874;-77
2022/04/19 05:07:22;;;;;;;43.30;38.80;;;;;;;3.78;55.36;97306.70;105834;1274;22558;-77
2022/04/19 05:09:58;;;;;;;40.40;36.60;;;;;;;3.81;55.50;97305.48;105839;1274;22687;-77
2022/04/19 05:12:27;;;;;;;40.80;36.50;;;;;;;3.84;55.64;97302.27;105892;1274;22698;-78
2022/04/19 05:14:56;;;;;;;38.00;34.20;;;;;;;3.90;55.62;97305.98;105823;1274;25420;-78
2022/04/19 05:17:25;;;;;;;39.00;35.10;;;;;;;3.97;55.59;97297.93;105937;1274;22561;-77
2022/04/19 05:19:55;;;;;;;53.10;47.40;;;;;;;4.04;55.58;97299.02;105935;1274;22557;-78
2022/04/19 05:22:23;;;;;;;57.40;51.20;;;;;;;4.10;55.30;97295.42;106013;1274;22543;-78
2022/04/19 05:24:52;;;;;;;52.20;47.00;;;;;;;4.15;55.48;97295.47;105931;1274;22709;-79
2022/04/19 05:27:20;;;;;;;48.90;44.10;;;;;;;4.20;55.56;97286.71;105847;1274;22584;-78
2022/04/19 05:29:48;;;;;;;46.00;41.50;;;;;;;4.27;55.68;97286.20;106116;1274;22544;-78
2022/04/19 05:32:16;;;;;;;43.40;38.90;;;;;;;4.33;55.27;97279.30;106058;1274;22775;-77
2022/04/19 05:34:44;;;;;;;44.90;40.30;;;;;;;4.39;55.48;97280.61;105932;1272;22650;-77
2022/04/19 05:37:12;;;;;;;43.20;38.80;;;;;;;4.48;55.75;97285.70;105729;1276;26564;-77
2022/04/19 05:39:40;;;;;;;39.40;35.40;;;;;;;4.58;55.65;97287.45;105749;1274;24240;-77
2022/04/19 05:42:08;;;;;;;37.50;33.80;;;;;;;4.67;55.58;97289.45;105748;1274;22566;-77
2022/04/19 05:44:37;;;;;;;37.60;33.80;;;;;;;4.72;55.61;97288.35;106047;1274;22552;-77
2022/04/19 05:47:05;;;;;;;32.40;29.30;;;;;;;4.79;55.47;97288.62;105854;1274;22644;-78
2022/04/19 05:49:33;;;;;;;33.30;29.80;;;;;;;4.85;55.58;97288.85;105735;1274;22729;-77
2022/04/19 05:52:02;;;;;;;35.40;31.70;;;;;;;4.91;55.65;97286.48;105757;1274;22615;-78
2022/04/19 05:54:29;;;;;;;36.40;32.80;;;;;;;4.96;55.63;97283.13;105759;1274;22569;-78
2022/04/19 05:56:58;;;;;;;38.70;34.70;;;;;;;5.00;55.63;97281.39;106021;1274;22567;-79
2022/04/19 05:59:25;;;;;;;39.30;35.40;;;;;;;5.06;55.45;97281.77;105910;1274;25499;-80
2022/04/19 06:04:53;;;;;;;35.60;32.20;;;;;;;5.20;55.45;97281.36;105811;1274;22774;-79
2022/04/19 06:07:30;;;;;;;46.70;42.20;;;;;;;5.22;55.13;97281.14;106155;1274;25352;-80
2022/04/19 06:10:02;;;;;;;37.70;34.00;;;;;;;5.26;55.41;97276.02;105796;1275;22618;-79
2022/04/19 06:12:30;;;;;;;34.10;30.80;;;;;;;5.31;55.26;97276.23;105988;1274;23209;-78
2022/04/19 06:15:03;;;;;;;35.90;32.20;;;;;;;5.34;55.61;97274.34;106224;1274;22546;-77
2022/04/19 06:17:32;;;;;;;38.00;34.10;;;;;;;5.36;55.12;97272.58;105929;1274;22553;-79
2022/04/19 06:20:06;;;;;;;40.20;35.20;;;;;;;5.40;55.50;97273.51;106086;1274;24272;-77
2022/04/19 06:22:34;;;;;;;38.10;34.40;;;;;;;5.47;55.42;97274.52;106081;1274;23134;-77
2022/04/19 06:25:06;;;;;;;37.20;33.30;;;;;;;5.55;55.17;97274.06;106042;1274;22697;-79
2022/04/19 06:27:34;;;;;;;36.50;32.20;;;;;;;5.58;55.22;97275.00;105949;1274;22567;-79
2022/04/19 06:30:04;;;;;;;31.60;28.60;;;;;;;5.60;54.86;97274.92;105906;1274;22714;-79
2022/04/19 06:32:32;;;;;;;33.20;30.00;;;;;;;5.61;55.02;97274.39;105955;1274;23974;-79
2022/04/19 06:35:03;;;;;;;31.90;28.60;;;;;;;5.64;55.06;97276.66;106006;1274;22556;-77
2022/04/19 06:37:33;;;;;;;31.80;28.80;;;;;;;5.70;55.06;97276.70;106012;1274;22569;-79
2022/04/19 06:40:11;;;;;;;37.90;31.70;;;;;;;5.76;54.64;97276.54;105993;1274;22626;-79
2022/04/19 06:42:39;;;;;;;34.80;31.20;;;;;;;5.82;54.79;97275.20;105935;1274;24429;-77
2022/04/19 06:45:19;;;;;;;25.50;22.80;;;;;;;5.87;54.39;97272.84;106024;1274;22629;-78
2022/04/19 06:48:01;;;;;;;28.20;20.70;;;;;;;5.90;54.50;97273.83;106123;1274;22608;-77
2022/04/19 06:50:33;;;;;;;23.70;20.80;;;;;;;5.90;54.02;97276.73;106074;1274;22705;-78
2022/04/19 06:53:06;;;;;;;28.40;25.30;;;;;;;5.89;54.26;97277.43;106058;1274;22652;-79
2022/04/19 06:55:54;;;;;;;25.70;23.20;;;;;;;5.95;54.25;97278.85;106080;1273;22748;-79
2022/04/19 06:58:22;;;;;;;25.70;23.10;;;;;;;6.02;54.33;97281.49;106076;1274;22622;-79
2022/04/19 07:00:50;;;;;;;26.10;23.50;;;;;;;6.13;54.14;97282.39;106060;1274;22534;-79
2022/04/19 07:03:19;;;;;;;23.20;21.00;;;;;;;6.24;53.68;97285.73;106095;1274;22554;-77
2022/04/19 07:06:06;;;;;;;26.20;22.90;;;;;;;6.29;53.65;97284.30;105792;1274;22611;-75
2022/04/19 07:08:35;;;;;;;24.60;22.20;;;;;;;6.35;53.77;97282.20;106034;1274;22604;-75
2022/04/19 07:11:03;;;;;;;25.60;21.20;;;;;;;6.45;54.08;97279.73;106097;1274;23234;-75
2022/04/19 07:13:57;;;;;;;25.00;22.60;;;;;;;6.57;53.41;97287.55;105934;1274;22557;-77
2022/04/19 07:16:45;;;;;;;22.50;19.70;;;;;;;6.62;53.49;97283.67;106355;1277;25240;-76
2022/04/19 07:19:14;;;;;;;20.80;18.70;;;;;;;6.67;53.06;97289.17;105764;1276;22563;-76
2022/04/19 07:27:33;;;;;;;50.60;45.60;;;;;;;6.77;53.03;97288.34;105903;1274;25476;-76
2022/04/19 07:30:02;;;;;;;28.60;25.80;;;;;;;6.80;52.66;97287.45;106164;1274;24212;-77
2022/04/19 07:32:30;;;;;;;20.70;18.70;;;;;;;6.81;52.64;97287.05;106119;1274;22543;-76
2022/04/19 07:35:05;;;;;;;;;;;;;;;6.79;52.47;97288.32;105906;1274;22595;-76
2022/04/19 07:37:33;;;;;;;18.50;16.60;;;;;;;6.79;52.64;97286.88;105969;1274;24494;-77
2022/04/19 07:40:00;;;;;;;18.80;16.80;;;;;;;6.89;52.56;97287.07;105939;1274;22571;-77
2022/04/19 07:42:28;;;;;;;18.70;17.00;;;;;;;6.96;52.26;97287.81;105905;1274;26520;-78
2022/04/19 07:44:57;;;;;;;18.50;16.80;;;;;;;7.01;52.11;97291.34;106287;1274;22658;-77
2022/04/19 07:47:25;;;;;;;20.90;18.90;;;;;;;7.07;52.10;97288.69;106279;1274;25322;-77
2022/04/19 07:49:57;;;;;;;20.60;18.10;;;;;;;7.11;51.63;97285.30;106042;1276;22684;-76
2022/04/19 07:52:25;;;;;;;19.20;17.30;;;;;;;7.09;51.87;97282.70;105914;1274;24318;-77
2022/04/19 07:54:53;;;;;;;18.60;16.60;;;;;;;7.15;51.77;97284.22;106233;1274;22631;-76
2022/04/19 07:57:21;;;;;;;18.90;17.00;;;;;;;7.26;51.73;97289.36;106225;1274;25461;-77
2022/04/19 07:59:54;;;;;;;18.40;16.60;;;;;;;7.42;51.82;97289.33;105908;1274;22572;-77
2022/04/19 08:02:24;;;;;;;18.50;16.70;;;;;;;7.59;51.44;97295.75;106270;1274;22644;-77
2022/04/19 08:04:52;;;;;;;19.40;17.60;;;;;;;7.76;51.68;97292.88;106424;1274;23919;-77
2022/04/19 08:07:20;;;;;;;20.00;18.10;;;;;;;7.90;51.48;97296.82;107152;1274;22564;-76
2022/04/19 08:09:50;;;;;;;19.90;18.10;;;;;;;7.97;51.09;97293.95;106560;1274;23267;-76
2022/04/19 08:12:18;;;;;;;21.60;19.40;;;;;;;7.92;50.95;97293.14;106462;1274;22681;-77
2022/04/19 08:14:46;;;;;;;21.50;19.30;;;;;;;7.93;50.98;97298.80;106297;1274;25362;-77
2022/04/19 08:17:15;;;;;;;22.70;19.60;;;;;;;7.82;50.90;97298.79;106441;1274;22544;-77
2022/04/19 08:19:42;;;;;;;23.10;20.70;;;;;;;7.76;50.38;97301.58;106058;1275;23039;-78
2022/04/19 08:22:10;;;;;;;24.80;22.30;;;;;;;7.72;50.35;97307.60;105927;1274;22536;-78
2022/04/19 08:24:45;;;;;;;;;;;;;;;7.63;50.37;97310.10;106269;1274;22531;-77
2022/04/19 08:27:16;;;;;;;25.10;22.70;;;;;;;7.62;50.07;97308.45;106007;1274;22528;-78
2022/04/19 08:29:43;;;;;;;25.40;21.50;;;;;;;7.68;50.22;97309.77;106390;1274;22750;-77
2022/04/19 08:32:13;;;;;;;24.70;22.30;;;;;;;7.77;49.91;97310.52;106376;1274;22610;-77
2022/04/19 08:34:42;;;;;;;24.70;22.30;;;;;;;7.70;49.25;97314.48;106477;1274;24233;-77
2022/04/19 08:37:10;;;;;;;24.40;22.00;;;;;;;7.73;49.85;97312.95;106403;1274;22589;-78
2022/04/19 08:39:38;;;;;;;24.50;22.00;;;;;;;7.82;49.25;97317.20;106426;1274;24431;-77
2022/04/19 08:42:06;;;;;;;25.30;22.90;;;;;;;7.88;49.88;97319.73;106325;1274;22672;-77
2022/04/19 08:44:36;;;;;;;23.80;21.40;;;;;;;7.99;49.68;97321.77;106505;1274;22547;-78
2022/04/19 08:47:06;;;;;;;24.50;22.10;;;;;;;8.13;49.74;97321.79;106424;1274;22547;-78
2022/04/19 08:49:41;;;;;;;22.90;20.40;;;;;;;8.27;49.30;97317.66;106424;1274;22627;-77
2022/04/19 08:52:09;;;;;;;22.50;20.20;;;;;;;8.31;49.15;97317.64;106430;1274;25347;-77
2022/04/19 08:57:30;;;;;;;24.50;20.50;;;;;;;8.39;49.44;97319.98;106342;1273;23973;-77
2022/04/19 08:59:59;;;;;;;16.70;15.20;;;;;;;8.49;49.32;97322.69;105869;1274;22551;-77
2022/04/19 09:02:29;;;;;;;21.70;16.20;;;;;;;8.55;48.71;97325.75;106499;1274;24503;-78
2022/04/19 09:05:17;;;;;;;17.60;15.90;;;;;;;8.63;48.88;97328.20;106233;1274;25429;-78
2022/04/19 09:07:47;;;;;;;27.00;20.10;;;;;;;8.76;49.13;97328.59;106407;1274;25384;-77
2022/04/19 09:10:36;;;;;;;17.80;16.00;;;;;;;8.86;48.80;97329.23;106073;1274;22605;-77
2022/04/19 09:13:10;;;;;;;17.60;16.00;;;;;;;8.85;48.43;97329.04;106455;1274;22614;-77
2022/04/19 09:15:43;;;;;;;19.60;15.80;;;;;;;8.84;48.07;97331.64;106416;1274;22612;-77
2022/04/19 09:18:24;;;;;;;17.60;16.00;;;;;;;8.82;48.11;97333.52;106200;1273;22614;-77
2022/04/19 09:20:52;;;;;;;17.20;15.40;;;;;;;8.86;48.15;97337.21;106099;1274;25348;-78
2022/04/19 09:23:22;;;;;;;19.30;17.30;;;;;;;8.83;47.94;97335.97;106330;1274;23275;-76
2022/04/19 09:25:53;;;;;;;20.30;18.40;;;;;;;8.83;48.02;97338.27;106017;1274;25414;-79
2022/04/19 09:28:22;;;;;;;21.90;19.40;;;;;;;8.88;48.43;97335.60;106493;1274;22716;-77
2022/04/19 09:30:52;;;;;;;21.10;19.00;;;;;;;8.91;47.69;97341.22;106368;1274;24346;-77
2022/04/19 09:33:21;;;;;;;19.20;17.30;;;;;;;8.95;47.64;97338.23;106481;1274;22687;-77
2022/04/19 09:35:53;;;;;;;20.90;18.80;;;;;;;9.00;47.95;97339.02;106089;1274;24254;-77
2022/04/19 09:38:38;;;;;;;20.60;18.60;;;;;;;9.04;47.96;97342.24;106431;1274;23967;-77
2022/04/19 09:41:13;;;;;;;25.00;19.70;;;;;;;9.04;47.76;97341.55;106371;1274;25377;-76
2022/04/19 09:44:09;;;;;;;19.40;17.50;;;;;;;9.03;47.70;97343.17;106273;1274;23309;-77
2022/04/19 09:46:38;;;;;;;19.40;17.50;;;;;;;8.99;47.43;97342.13;106184;1274;22544;-77
2022/04/19 09:49:07;;;;;;;16.10;14.50;;;;;;;9.00;47.35;97347.53;106376;1273;25305;-77
2022/04/19 09:51:36;;;;;;;17.30;15.60;;;;;;;8.98;47.10;97349.41;106396;1274;26121;-77
2022/04/19 09:54:04;;;;;;;16.20;14.60;;;;;;;8.90;46.89;97354.09;106428;1274;22547;-77
2022/04/19 09:56:37;;;;;;;17.10;15.20;;;;;;;8.81;46.80;97348.15;106233;1275;23929;-77
2022/04/19 09:59:17;;;;;;;18.20;15.40;;;;;;;8.73;46.92;97348.97;106120;1274;23120;-77
2022/04/19 10:10:08;;;;;;;15.70;14.10;;;;;;;8.89;46.73;97349.55;106268;1274;25245;-76
2022/04/19 10:12:36;;;;;;;16.60;15.00;;;;;;;8.97;46.66;97353.99;105898;1275;24273;-77
2022/04/19 10:15:06;;;;;;;16.20;13.30;;;;;;;9.11;46.58;97348.54;106327;1274;22559;-77
2022/04/19 10:17:38;;;;;;;14.70;13.00;;;;;;;9.22;46.15;97354.54;106131;1274;191051;-75
2022/04/19 10:20:07;;;;;;;17.50;15.60;;;;;;;9.24;45.82;97353.90;106304;1274;22709;-77
2022/04/19 10:22:35;;;;;;;18.60;14.70;;;;;;;9.22;45.90;97355.65;106006;1274;22539;-77
2022/04/19 10:25:11;;;;;;;17.60;15.80;;;;;;;9.25;46.23;97355.39;106004;1274;23985;-77
2022/04/19 10:27:39;;;;;;;18.30;16.50;;;;;;;9.27;46.29;97357.50;106326;1274;22554;-78
2022/04/19 10:30:08;;;;;;;17.40;15.60;;;;;;;9.27;45.72;97359.48;106186;1274;22698;-78
2022/04/19 10:32:36;;;;;;;17.90;14.80;;;;;;;9.24;46.09;97364.34;106260;1274;22553;-77
2022/04/19 10:35:05;;;;;;;19.80;18.00;;;;;;;9.23;46.20;97366.39;106250;1274;22642;-76
2022/04/19 10:37:33;;;;;;;17.80;16.10;;;;;;;9.18;46.35;97365.73;105914;1274;22556;-76
2022/04/19 10:40:07;;;;;;;21.10;17.00;;;;;;;9.03;46.66;97366.98;105906;1274;23217;-77
2022/04/19 10:42:38;;;;;;;23.50;21.20;;;;;;;8.90;46.85;97366.13;105944;1274;22601;-77
2022/04/19 10:45:12;;;;;;;47.10;43.10;;;;;;;8.78;47.23;97372.01;105972;1274;24282;-76
2022/04/19 10:48:01;;;;;;;30.10;27.50;;;;;;;8.63;47.72;97381.13;105858;1274;24228;-76
2022/04/19 10:50:33;;;;;;;27.70;25.20;;;;;;;8.42;47.66;97380.85;106391;1274;25499;-76
2022/04/19 10:53:03;;;;;;;30.60;28.00;;;;;;;8.19;48.54;97386.36;106358;1274;23306;-78
2022/04/19 10:55:34;;;;;;;23.60;21.40;;;;;;;8.09;48.57;97387.23;106384;1274;25318;-77
2022/04/19 10:58:17;;;;;;;22.40;20.30;;;;;;;8.01;48.45;97392.04;106444;1272;24407;-77
2022/04/19 11:00:52;;;;;;;22.40;20.30;;;;;;;7.91;48.72;97395.79;106406;1274;22704;-77
2022/04/19 11:03:40;;;;;;;17.80;16.20;;;;;;;7.81;48.78;97405.45;106141;1274;23931;-77
2022/04/19 11:06:35;;;;;;;17.90;16.20;;;;;;;7.69;48.82;97412.98;106453;1274;22537;-76
2022/04/19 11:09:14;;;;;;;;;;;;;;;7.50;49.05;97409.88;106490;1274;23212;-77
2022/04/19 11:11:53;;;;;;;16.80;15.30;;;;;;;7.32;49.39;97414.96;106434;1274;22602;-77
2022/04/19 11:14:40;;;;;;;15.20;14.10;;;;;;;7.20;49.37;97417.95;106447;1274;25424;-76
2022/04/19 11:17:19;;;;;;;15.60;14.10;;;;;;;7.07;49.81;97418.23;106097;1274;22717;-77
2022/04/19 11:20:05;;;;;;;16.00;14.50;;;;;;;6.92;50.61;97420.62;106511;1274;22571;-76
2022/04/19 11:22:48;;;;;;;18.60;17.10;;;;;;;6.77;51.06;97424.48;106062;1274;22556;-77
2022/04/19 11:25:35;;;;;;;19.30;17.50;;;;;;;6.71;50.84;97423.96;106193;1274;22585;-75
2022/04/19 11:28:03;;;;;;;19.40;17.70;;;;;;;6.75;50.84;97424.88;106507;1274;22545;-76
2022/04/19 11:30:31;;;;;;;17.60;16.10;;;;;;;6.80;50.80;97424.13;106116;1274;24433;-75
2022/04/19 11:32:59;;;;;;;15.60;14.30;;;;;;;6.85;50.81;97425.46;106126;1274;23970;-76
2022/04/19 11:35:31;;;;;;;15.50;14.00;;;;;;;6.88;50.85;97422.80;105893;1275;24428;-76
2022/04/19 11:38:04;;;;;;;16.70;14.00;;;;;;;6.91;50.85;97429.46;105971;1274;22852;-77
2022/04/19 11:46:45;;;;;;;16.40;15.00;;;;;;;7.05;50.84;97434.06;106337;1274;22765;-76
2022/04/19 11:49:16;;;;;;;15.30;13.90;;;;;;;7.05;50.76;97437.96;106102;1274;22681;-77
2022/04/19 11:51:52;;;;;;;14.90;13.50;;;;;;;7.01;50.62;97430.20;106506;1274;22542;-78
2022/04/19 11:54:28;;;;;;;13.20;11.90;;;;;;;6.97;50.69;97435.61;106541;1274;22726;-78
2022/04/19 11:57:08;;;;;;;13.30;12.20;;;;;;;6.84;50.68;97431.48;106479;1274;25961;-78
2022/04/19 11:59:37;;;;;;;13.20;11.90;;;;;;;6.80;50.85;97429.76;106141;1274;24032;-75
2022/04/19 12:02:22;;;;;;;13.80;12.50;;;;;;;6.77;51.78;97432.78;106079;1274;22642;-75
2022/04/19 12:04:54;;;;;;;;;;;;;;;6.74;52.27;97428.37;106049;1274;22543;-75
2022/04/19 12:07:25;;;;;;;15.10;13.80;;;;;;;6.71;52.43;97428.05;105888;1275;22690;-77
2022/04/19 12:09:54;;;;;;;15.70;14.30;;;;;;;6.75;52.43;97423.91;106082;1274;24530;-77
2022/04/19 12:12:22;;;;;;;15.40;14.00;;;;;;;6.81;52.35;97424.76;106649;1274;25407;-76